createdAt,value
2022-08-31T00:02:28.040Z,1013.3
2022-08-31T00:08:47.977Z,1013.34
2022-08-31T00:15:10.972Z,1013.4
2022-08-31T00:21:30.967Z,1013.46
2022-08-31T00:27:53.986Z,1013.5
2022-08-31T00:34:13.971Z,1013.56
2022-08-31T00:40:38.118Z,1013.64
2022-08-31T00:46:56.961Z,1013.7
2022-08-31T00:53:19.980Z,1013.77
2022-08-31T00:59:39.980Z,1013.87
2022-08-31T01:06:02.972Z,1013.91
2022-08-31T01:12:22.994Z,1014.01
2022-08-31T01:18:45.975Z,1013.99
2022-08-31T01:25:05.974Z,1014.05
2022-08-31T01:31:29.095Z,1014.03
2022-08-31T01:37:48.976Z,1014.03
2022-08-31T01:44:11.981Z,1014.11
2022-08-31T01:50:31.974Z,1014.17
2022-08-31T01:56:54.986Z,1014.22
2022-08-31T02:03:15.017Z,1014.19
2022-08-31T02:09:37.972Z,1014.22
2022-08-31T02:15:58.056Z,1014.21
2022-08-31T02:22:20.967Z,1014.24
2022-08-31T02:28:40.971Z,1014.28
2022-08-31T02:35:03.985Z,1014.26
2022-08-31T02:41:23.973Z,1014.22
2022-08-31T02:47:46.986Z,1014.21
2022-08-31T02:54:06.974Z,1014.21
2022-08-31T03:00:29.976Z,1014.21
2022-08-31T03:06:49.982Z,1014.19
2022-08-31T03:13:12.978Z,1014.19
2022-08-31T03:19:32.986Z,1014.17
2022-08-31T03:25:55.981Z,1014.13
2022-08-31T03:32:15.971Z,1014.07
2022-08-31T03:38:39.003Z,1014.01
2022-08-31T03:44:58.982Z,1014.01
2022-08-31T03:51:22.011Z,1014.05
2022-08-31T03:57:41.971Z,1014.09
2022-08-31T04:04:04.977Z,1014.11
2022-08-31T04:27:11.980Z,1014.11
2022-08-31T04:33:31.970Z,1014.17
2022-08-31T04:39:54.986Z,1014.24
2022-08-31T04:46:15.013Z,1014.26
2022-08-31T04:52:37.990Z,1014.26
2022-08-31T04:58:57.982Z,1014.32
2022-08-31T05:05:20.975Z,1014.32
2022-08-31T05:11:40.981Z,1014.38
2022-08-31T05:18:04.018Z,1014.36
2022-08-31T05:24:23.983Z,1014.36
2022-08-31T05:30:47.038Z,1014.42
2022-08-31T05:37:06.977Z,1014.5
2022-08-31T05:43:30.005Z,1014.54
2022-08-31T05:49:49.976Z,1014.54
2022-08-31T05:56:12.991Z,1014.54
2022-08-31T06:02:32.977Z,1014.56
2022-08-31T06:08:55.980Z,1014.54
2022-08-31T06:15:16.004Z,1014.58
2022-08-31T06:21:38.969Z,1014.64
2022-08-31T06:27:58.995Z,1014.68
2022-08-31T06:34:21.990Z,1014.69
2022-08-31T06:40:42.030Z,1014.68
2022-08-31T06:47:05.001Z,1014.68
2022-08-31T06:53:24.988Z,1014.69
2022-08-31T06:59:47.999Z,1014.68
2022-08-31T07:06:07.989Z,1014.71
2022-08-31T07:12:30.990Z,1014.75
2022-08-31T07:18:50.997Z,1014.81
2022-08-31T07:25:13.982Z,1014.83
2022-08-31T07:31:33.990Z,1014.85
2022-08-31T07:37:56.992Z,1014.89
2022-08-31T07:44:16.976Z,1014.89
2022-08-31T07:50:39.982Z,1014.89
2022-08-31T07:56:59.979Z,1014.91
2022-08-31T08:03:22.997Z,1014.95
2022-08-31T08:09:42.982Z,1014.97
2022-08-31T08:16:06.007Z,1014.97
2022-08-31T08:22:41.853Z,1014.99
2022-08-31T08:28:48.979Z,1015.03
2022-08-31T08:35:08.988Z,1015.03
2022-08-31T08:41:31.989Z,1015.11
2022-08-31T08:47:51.977Z,1015.13
2022-08-31T08:54:14.988Z,1015.13
2022-08-31T09:00:34.975Z,1015.16
2022-08-31T09:06:57.991Z,1015.2
2022-08-31T09:13:18.075Z,1015.22
2022-08-31T09:19:40.982Z,1015.26
2022-08-31T09:26:03.024Z,1015.24
2022-08-31T09:32:24.747Z,1015.22
2022-08-31T09:38:43.988Z,1015.26
2022-08-31T09:45:06.984Z,1015.3
2022-08-31T09:51:26.975Z,1015.28
2022-08-31T09:57:50.014Z,1015.26
2022-08-31T10:20:55.482Z,1015.32
2022-08-31T10:27:14.984Z,1015.28
2022-08-31T10:33:37.996Z,1015.26
2022-08-31T10:39:57.978Z,1015.2
2022-08-31T10:46:21.034Z,1015.16
2022-08-31T10:52:40.987Z,1015.16
2022-08-31T10:59:03.979Z,1015.09
2022-08-31T11:05:23.996Z,1015.09
2022-08-31T11:11:46.985Z,1015.07
2022-08-31T11:18:06.984Z,1015.09
2022-08-31T11:24:32.627Z,1015.07
2022-08-31T11:30:51.079Z,1015.09
2022-08-31T11:37:12.995Z,1015.07
2022-08-31T11:43:32.990Z,1015.03
2022-08-31T11:49:55.988Z,1014.99
2022-08-31T11:56:16.012Z,1014.95
2022-08-31T12:02:39.004Z,1014.91
2022-08-31T12:08:58.990Z,1014.87
2022-08-31T12:15:21.979Z,1014.85
2022-08-31T12:21:42.203Z,1014.79
2022-08-31T12:28:04.984Z,1014.71
2022-08-31T12:34:26.174Z,1014.64
2022-08-31T12:40:49.058Z,1014.58
2022-08-31T12:47:08.981Z,1014.54
2022-08-31T12:53:31.993Z,1014.48
2022-08-31T13:00:01.000Z,1014.46
2022-08-31T13:06:14.991Z,1014.38
2022-08-31T13:12:34.981Z,1014.34
2022-08-31T13:18:57.994Z,1014.26
2022-08-31T13:25:17.984Z,1014.21
2022-08-31T13:31:41.033Z,1014.13
2022-08-31T13:38:00.976Z,1014.05
2022-08-31T13:44:23.985Z,1014.03
2022-08-31T13:50:44.710Z,1014.05
2022-08-31T13:57:06.991Z,1014.03
2022-08-31T14:03:26.991Z,1013.97
2022-08-31T14:09:49.976Z,1013.87
2022-08-31T14:16:10.020Z,1013.87
2022-08-31T14:22:33.009Z,1013.75
2022-08-31T14:28:53.041Z,1013.72
2022-08-31T14:35:16.999Z,1013.68
2022-08-31T14:41:36.981Z,1013.62
2022-08-31T14:47:59.997Z,1013.58
2022-08-31T14:54:19.983Z,1013.54
2022-08-31T15:00:43.018Z,1013.54
2022-08-31T15:07:06.549Z,1013.56
2022-08-31T15:13:25.989Z,1013.54
2022-08-31T15:19:45.975Z,1013.56
2022-08-31T15:26:09.070Z,1013.56
2022-08-31T15:32:29.085Z,1013.5
2022-08-31T15:38:52.152Z,1013.46
2022-08-31T16:01:40.619Z,1013.34
2022-08-31T16:08:01.013Z,1013.32
2022-08-31T16:14:24.013Z,1013.3
2022-08-31T16:20:44.011Z,1013.27
2022-08-31T16:27:07.010Z,1013.27
2022-08-31T16:33:27.013Z,1013.21
2022-08-31T16:39:50.010Z,1013.12
2022-08-31T16:46:30.335Z,1013.08
2022-08-31T16:52:33.012Z,1013.08
2022-08-31T16:58:53.273Z,1013.06
2022-08-31T17:05:16.030Z,1013.1
2022-08-31T17:11:36.020Z,1013.08
2022-08-31T17:17:59.024Z,1013.08
2022-08-31T17:24:19.009Z,1013.12
2022-08-31T17:30:42.022Z,1013.21
2022-08-31T17:37:02.022Z,1013.27
2022-08-31T17:43:25.161Z,1013.27
2022-08-31T17:49:46.699Z,1013.28
2022-08-31T17:56:08.012Z,1013.28
2022-08-31T18:02:28.007Z,1013.38
2022-08-31T18:08:51.026Z,1013.44
2022-08-31T18:15:11.006Z,1013.48
2022-08-31T18:21:34.014Z,1013.56
2022-08-31T18:27:54.002Z,1013.64
2022-08-31T18:34:17.002Z,1013.74
2022-08-31T18:40:38.058Z,1013.79
2022-08-31T18:47:01.100Z,1013.83
2022-08-31T18:53:26.778Z,1013.91
2022-08-31T18:59:44.009Z,1013.95
2022-08-31T19:06:04.010Z,1014.03
2022-08-31T19:12:27.027Z,1014.07
2022-08-31T19:18:48.025Z,1014.17
2022-08-31T19:25:11.013Z,1014.21
2022-08-31T19:31:31.137Z,1014.26
2022-08-31T19:37:55.013Z,1014.22
2022-08-31T19:44:17.541Z,1014.24
2022-08-31T19:50:42.422Z,1014.26
2022-08-31T19:57:01.005Z,1014.26
2022-08-31T20:03:24.012Z,1014.32
2022-08-31T20:09:44.011Z,1014.34
2022-08-31T20:16:07.060Z,1014.32
2022-08-31T20:22:28.093Z,1014.36
2022-08-31T20:28:50.001Z,1014.36
2022-08-31T20:35:10.004Z,1014.32
2022-08-31T20:41:33.018Z,1014.34
2022-08-31T20:47:52.973Z,1014.36
2022-08-31T20:54:15.979Z,1014.34
2022-08-31T21:00:35.982Z,1014.32
2022-08-31T21:06:58.989Z,1014.34
2022-08-31T21:13:19.145Z,1014.32
2022-08-31T21:19:41.967Z,1014.32
2022-08-31T21:26:01.998Z,1014.36
2022-08-31T21:32:24.977Z,1014.4
2022-08-31T21:55:10.952Z,1014.54
2022-08-31T22:20:44.968Z,1014.64
2022-08-31T22:27:05.039Z,1014.64
2022-08-31T22:33:27.981Z,1014.64
2022-08-31T22:39:47.962Z,1014.68
2022-08-31T22:46:11.004Z,1014.68
2022-08-31T22:52:30.969Z,1014.66
2022-08-31T22:58:53.987Z,1014.6
2022-08-31T23:05:13.967Z,1014.54
2022-08-31T23:11:36.983Z,1014.52
2022-08-31T23:17:56.965Z,1014.52
2022-08-31T23:24:19.974Z,1014.48
2022-08-31T23:30:39.988Z,1014.42
2022-08-31T23:37:02.982Z,1014.42
2022-08-31T23:43:22.974Z,1014.36
2022-08-31T23:49:46.051Z,1014.32
2022-08-31T23:56:05.999Z,1014.26
